Time;durP1;ratioP1;P1;durP2;ratioP2;P2;SDS_P1;SDS_P2;PMS_P1;PMS_P2;Temp;Humidity;BMP_temperature;BMP_pressure;BME280_temperature;BME280_humidity;BME280_pressure;Samples;Min_cycle;Max_cycle;Signal;HPM_P1;HPM_P2
2023/07/03 09:14:55;;;;;;;;;;;15.50;84.20;;;;;;6255698;22;19977;-71
2023/07/03 09:17:22;;;;;;;;;;;15.50;84.20;;;;;;6243657;22;19935;-69
2023/07/03 09:19:49;;;;;;;;;;;15.50;84.20;;;;;;6244493;22;19904;-70
2023/07/03 09:22:26;;;;;;;;;;;15.50;84.30;;;;;;6250029;22;19964;-68
2023/07/03 09:24:53;;;;;;;;;;;15.50;84.30;;;;;;6275008;22;19991;-68
2023/07/03 09:27:26;;;;;;;;;;;15.40;84.40;;;;;;6275059;22;19903;-68
2023/07/03 09:29:53;;;;;;;;;;;15.50;84.40;;;;;;6301211;22;19998;-70
2023/07/03 09:32:26;;;;;;;;;;;15.40;84.40;;;;;;6301916;22;19911;-70
2023/07/03 09:35:00;;;;;;;;;;;15.40;84.40;;;;;;6301783;22;20237;-71
2023/07/03 09:37:27;;;;;;;;;;;15.50;84.50;;;;;;6302819;22;19907;-69
2023/07/03 09:39:54;;;;;;;;;;;15.40;84.60;;;;;;6301960;22;19929;-67
2023/07/03 09:42:21;;;;;;;;;;;15.40;84.80;;;;;;6300820;22;19989;-69
2023/07/03 09:44:48;;;;;;;;;;;15.40;84.90;;;;;;6301935;22;19914;-68
2023/07/03 09:47:24;;;;;;;;;;;15.40;85.00;;;;;;6275402;22;20435;-70
2023/07/03 09:49:51;;;;;;;;;;;15.40;85.00;;;;;;6303429;22;19929;-70
2023/07/03 09:52:18;;;;;;;;;;;15.40;85.10;;;;;;6276904;22;20635;-69
2023/07/03 09:54:45;;;;;;;;;;;15.30;85.40;;;;;;6277049;22;19961;-69
2023/07/03 09:57:19;;;;;;;;;;;15.20;86.40;;;;;;6303577;22;20385;-69
2023/07/03 09:59:45;;;;;;;;;;;15.20;87.20;;;;;;6303624;22;19953;-68
2023/07/03 10:02:12;;;;;;;;;;;15.00;87.90;;;;;;6300900;22;19906;-68
2023/07/03 10:04:43;;;;;;;;;;;15.00;88.40;;;;;;6304034;22;19911;-68
2023/07/03 10:07:11;;;;;;;;;;;14.90;88.70;;;;;;6303929;22;19915;-67
2023/07/03 10:09:39;;;;;;;;;;;14.90;89.20;;;;;;6276109;22;19903;-67
2023/07/03 10:12:11;;;;;;;;;;;14.80;89.50;;;;;;6302970;22;19911;-67
2023/07/03 10:14:42;;;;;;;;;;;14.80;89.70;;;;;;6303771;22;20318;-67
2023/07/03 10:17:12;;;;;;;;;;;14.80;90.00;;;;;;6275122;22;19929;-66
2023/07/03 10:19:43;;;;;;;;;;;14.80;90.20;;;;;;6276241;22;20334;-68
2023/07/03 10:22:09;;;;;;;;;;;14.80;90.50;;;;;;6303659;22;19988;-67
2023/07/03 10:24:36;;;;;;;;;;;14.80;90.70;;;;;;6276353;22;20292;-67
2023/07/03 10:27:04;;;;;;;;;;;14.80;90.80;;;;;;6275442;22;20280;-67
2023/07/03 10:29:32;;;;;;;;;;;14.80;90.90;;;;;;6273983;22;20462;-67
2023/07/03 10:32:00;;;;;;;;;;;14.80;91.10;;;;;;6274328;22;19919;-68
2023/07/03 10:34:46;;;;;;;;;;;14.80;91.30;;;;;;6276888;22;19907;-68
2023/07/03 10:37:13;;;;;;;;;;;14.70;91.40;;;;;;6304062;22;19938;-68
2023/07/03 10:39:43;;;;;;;;;;;14.70;91.50;;;;;;6302825;22;19914;-68
2023/07/03 10:42:11;;;;;;;;;;;14.70;91.70;;;;;;6302759;22;19911;-66
2023/07/03 10:44:38;;;;;;;;;;;14.70;91.80;;;;;;6302510;22;19903;-68
2023/07/03 10:47:06;;;;;;;;;;;14.70;91.80;;;;;;6275787;22;20267;-67
2023/07/03 10:49:33;;;;;;;;;;;14.70;91.90;;;;;;6303269;22;19903;-69
2023/07/03 10:52:16;;;;;;;;;;;14.70;92.00;;;;;;6250923;22;19917;-66
2023/07/03 10:55:08;;;;;;;;;;;14.70;92.10;;;;;;6276360;22;19957;-68
2023/07/03 10:57:47;;;;;;;;;;;14.70;92.20;;;;;;6243437;22;19917;-68
2023/07/03 11:00:17;;;;;;;;;;;14.70;92.20;;;;;;6274106;22;19911;-68
2023/07/03 11:02:58;;;;;;;;;;;14.70;92.40;;;;;;6275254;22;19907;-67
2023/07/03 11:05:27;;;;;;;;;;;14.70;92.40;;;;;;6273993;22;20338;-68
2023/07/03 11:08:17;;;;;;;;;;;14.70;92.50;;;;;;6275488;22;19907;-67
2023/07/03 11:19:09;;;;;;;;;;;14.70;92.80;;;;;;6299215;22;19961;-66
2023/07/03 11:21:43;;;;;;;;;;;14.70;93.00;;;;;;6277179;22;20356;-67
2023/07/03 11:24:19;;;;;;;;;;;14.70;93.10;;;;;;6305102;22;19957;-67
2023/07/03 11:26:56;;;;;;;;;;;14.70;93.30;;;;;;6305241;22;19903;-67
2023/07/03 11:29:23;;;;;;;;;;;14.70;93.30;;;;;;6278564;22;20494;-67
2023/07/03 11:31:50;;;;;;;;;;;14.70;93.40;;;;;;6279271;22;19964;-67
2023/07/03 11:34:17;;;;;;;;;;;14.70;93.50;;;;;;6304879;22;19910;-67
2023/07/03 11:36:45;;;;;;;;;;;14.70;93.50;;;;;;6304540;22;19977;-68
2023/07/03 11:39:33;;;;;;;;;;;14.70;93.60;;;;;;6305276;22;19941;-68
2023/07/03 11:42:02;;;;;;;;;;;14.70;93.60;;;;;;6305376;22;19907;-68
2023/07/03 11:44:47;;;;;;;;;;;14.70;93.70;;;;;;6306213;22;19907;-68
2023/07/03 11:47:18;;;;;;;;;;;14.70;93.70;;;;;;6278826;22;19907;-68
2023/07/03 11:49:47;;;;;;;;;;;14.70;93.80;;;;;;6278515;22;20304;-68
2023/07/03 11:52:14;;;;;;;;;;;14.70;93.80;;;;;;6278548;22;19918;-68
2023/07/03 11:54:41;;;;;;;;;;;14.70;93.90;;;;;;6278449;22;20021;-67
2023/07/03 11:57:25;;;;;;;;;;;14.70;94.00;;;;;;6278675;22;19930;-67
2023/07/03 11:59:52;;;;;;;;;;;14.70;94.00;;;;;;6278850;22;19926;-68
2023/07/03 12:02:19;;;;;;;;;;;14.70;94.00;;;;;;6279182;22;19914;-68
2023/07/03 12:04:45;;;;;;;;;;;14.70;94.10;;;;;;6306208;22;19956;-67
2023/07/03 12:07:24;;;;;;;;;;;14.70;94.10;;;;;;6305799;22;19942;-67
2023/07/03 12:09:51;;;;;;;;;;;14.70;94.10;;;;;;6304985;22;19902;-67
2023/07/03 12:12:18;;;;;;;;;;;14.70;94.20;;;;;;6305076;22;19965;-68
2023/07/03 12:14:56;;;;;;;;;;;14.70;94.20;;;;;;6305436;22;20314;-68
2023/07/03 12:20:05;;;;;;;;;;;14.70;94.20;;;;;;6304533;22;20253;-67
2023/07/03 12:22:35;;;;;;;;;;;14.70;94.30;;;;;;6305282;22;20242;-67
2023/07/03 12:25:03;;;;;;;;;;;14.70;94.30;;;;;;6277583;22;19938;-67
2023/07/03 12:27:30;;;;;;;;;;;14.70;94.30;;;;;;6304973;22;19907;-67
2023/07/03 12:29:57;;;;;;;;;;;14.70;94.30;;;;;;6305840;22;19902;-68
2023/07/03 12:32:28;;;;;;;;;;;14.70;94.30;;;;;;6306104;22;19910;-67
2023/07/03 12:35:02;;;;;;;;;;;14.70;94.30;;;;;;6305537;22;19907;-68
2023/07/03 12:37:28;;;;;;;;;;;14.70;94.40;;;;;;6278899;22;19934;-68
2023/07/03 12:39:55;;;;;;;;;;;14.70;94.40;;;;;;6275616;22;20298;-67
2023/07/03 12:42:23;;;;;;;;;;;14.70;94.30;;;;;;6305758;22;19907;-68
2023/07/03 12:44:50;;;;;;;;;;;14.70;94.40;;;;;;6304601;22;20285;-68
2023/07/03 12:47:18;;;;;;;;;;;14.70;94.30;;;;;;6305583;22;19903;-68
2023/07/03 12:49:48;;;;;;;;;;;14.70;94.30;;;;;;6305132;22;19910;-67
2023/07/03 12:52:15;;;;;;;;;;;14.70;94.20;;;;;;6305330;22;19911;-68
2023/07/03 12:54:42;;;;;;;;;;;14.70;94.20;;;;;;6306116;22;19903;-67
2023/07/03 12:57:09;;;;;;;;;;;14.70;94.20;;;;;;6305238;22;19903;-67
2023/07/03 12:59:35;;;;;;;;;;;14.60;94.20;;;;;;6304205;22;19989;-67
2023/07/03 13:02:02;;;;;;;;;;;14.70;94.20;;;;;;6305166;22;20289;-68
2023/07/03 13:04:30;;;;;;;;;;;14.70;94.10;;;;;;6304833;22;19907;-67
2023/07/03 13:06:56;;;;;;;;;;;14.70;94.10;;;;;;6305213;22;19973;-67
2023/07/03 13:09:23;;;;;;;;;;;14.70;94.10;;;;;;6277110;22;19938;-68
2023/07/03 13:11:50;;;;;;;;;;;14.70;94.10;;;;;;6276713;22;19915;-67
2023/07/03 13:14:18;;;;;;;;;;;14.70;94.10;;;;;;6304236;22;19961;-68
2023/07/03 13:16:49;;;;;;;;;;;14.60;94.00;;;;;;6306718;22;19903;-67
2023/07/03 13:44:11;;;;;;;;;;;14.50;93.70;;;;;;6277111;22;19941;-68
2023/07/03 13:46:38;;;;;;;;;;;14.50;93.80;;;;;;6276922;22;19922;-68
2023/07/03 13:49:05;;;;;;;;;;;14.50;93.80;;;;;;6276922;22;19909;-68
2023/07/03 13:51:33;;;;;;;;;;;14.50;93.60;;;;;;6275260;22;20381;-67
2023/07/03 13:53:59;;;;;;;;;;;14.50;93.70;;;;;;6276833;22;19907;-67
2023/07/03 13:56:26;;;;;;;;;;;14.50;93.70;;;;;;6276665;22;19907;-67
2023/07/03 13:58:53;;;;;;;;;;;14.50;93.60;;;;;;6274452;22;19904;-68
2023/07/03 14:01:20;;;;;;;;;;;14.50;93.60;;;;;;6275397;22;19903;-68
2023/07/03 14:03:50;;;;;;;;;;;14.50;93.60;;;;;;6275900;22;19907;-68
2023/07/03 14:06:16;;;;;;;;;;;14.50;93.50;;;;;;6276336;22;19949;-68
2023/07/03 14:08:43;;;;;;;;;;;14.50;93.50;;;;;;6276039;22;19935;-68
2023/07/03 14:11:10;;;;;;;;;;;14.40;93.50;;;;;;6275189;22;20318;-68
2023/07/03 14:13:37;;;;;;;;;;;14.40;93.40;;;;;;6276950;22;19926;-68
2023/07/03 14:16:04;;;;;;;;;;;14.40;93.40;;;;;;6276024;22;20242;-68
2023/07/03 14:18:30;;;;;;;;;;;14.40;93.40;;;;;;6276217;22;19930;-68
2023/07/03 14:20:57;;;;;;;;;;;14.40;93.50;;;;;;6276128;22;19914;-68
2023/07/03 14:23:24;;;;;;;;;;;14.40;93.40;;;;;;6276822;22;19907;-68
2023/07/03 14:25:51;;;;;;;;;;;14.40;93.50;;;;;;6276249;22;20341;-68
2023/07/03 14:28:17;;;;;;;;;;;14.40;93.40;;;;;;6274842;22;19903;-68
2023/07/03 14:30:44;;;;;;;;;;;14.40;93.50;;;;;;6275619;22;19904;-68
2023/07/03 14:33:11;;;;;;;;;;;14.50;93.50;;;;;;6275522;22;19965;-68
2023/07/03 14:35:37;;;;;;;;;;;14.50;93.50;;;;;;6276758;22;19903;-68
2023/07/03 14:38:05;;;;;;;;;;;14.50;93.50;;;;;;6276604;22;20330;-68
2023/07/03 14:40:31;;;;;;;;;;;14.50;93.40;;;;;;6276536;22;19911;-68
2023/07/03 14:42:58;;;;;;;;;;;14.50;93.40;;;;;;6293649;22;20338;-67
2023/07/03 14:45:25;;;;;;;;;;;14.50;93.60;;;;;;6306714;22;19910;-68
2023/07/03 14:47:51;;;;;;;;;;;14.40;93.50;;;;;;6306943;22;19939;-68
2023/07/03 14:50:18;;;;;;;;;;;14.40;93.30;;;;;;6306656;22;19914;-68
2023/07/03 14:52:46;;;;;;;;;;;14.40;93.40;;;;;;6306653;22;19918;-68
2023/07/03 14:55:13;;;;;;;;;;;14.50;93.40;;;;;;6280153;22;19910;-68
2023/07/03 14:57:39;;;;;;;;;;;14.40;93.40;;;;;;6305688;22;20349;-68
2023/07/03 15:00:07;;;;;;;;;;;14.40;93.40;;;;;;6306916;22;19907;-68
2023/07/03 15:02:34;;;;;;;;;;;14.40;93.40;;;;;;6307118;22;19979;-68
2023/07/03 15:05:00;;;;;;;;;;;14.40;93.40;;;;;;6307494;22;19910;-67
2023/07/03 15:07:27;;;;;;;;;;;14.40;93.40;;;;;;6307565;22;19907;-67
2023/07/03 15:09:54;;;;;;;;;;;14.40;93.40;;;;;;6307069;22;19907;-68
2023/07/03 18:43:11;;;;;;;;;;;14.20;92.60;;;;;;6301595;22;20497;-68
2023/07/03 18:45:38;;;;;;;;;;;14.20;92.70;;;;;;6307135;22;19917;-69
2023/07/03 18:48:04;;;;;;;;;;;14.20;92.70;;;;;;6307169;22;20009;-69
2023/07/03 18:50:31;;;;;;;;;;;14.20;92.70;;;;;;6306142;22;19982;-69
2023/07/03 18:52:58;;;;;;;;;;;14.20;92.70;;;;;;6306364;22;19911;-68
2023/07/03 18:55:24;;;;;;;;;;;14.20;92.70;;;;;;6306554;22;19903;-68
2023/07/03 18:57:51;;;;;;;;;;;14.10;92.70;;;;;;6307590;22;19911;-68
2023/07/03 19:00:18;;;;;;;;;;;14.20;92.80;;;;;;6306765;22;19903;-68
2023/07/03 19:02:48;;;;;;;;;;;14.10;92.80;;;;;;6305699;22;19934;-68
2023/07/03 19:05:15;;;;;;;;;;;14.10;92.80;;;;;;6305407;22;20376;-68
2023/07/03 19:07:43;;;;;;;;;;;14.10;92.90;;;;;;6306383;22;19903;-67
2023/07/03 19:10:10;;;;;;;;;;;14.10;92.90;;;;;;6306381;22;19903;-68
2023/07/03 19:12:37;;;;;;;;;;;14.10;92.90;;;;;;6307117;22;19910;-67
2023/07/03 19:15:04;;;;;;;;;;;14.20;92.90;;;;;;6307038;22;20214;-68
2023/07/03 19:17:30;;;;;;;;;;;14.20;92.80;;;;;;6307254;22;19903;-68
2023/07/03 19:19:57;;;;;;;;;;;14.20;92.80;;;;;;6306711;22;19903;-69
2023/07/03 19:22:24;;;;;;;;;;;14.10;92.80;;;;;;6307177;22;19903;-68
2023/07/03 19:24:55;;;;;;;;;;;14.20;92.90;;;;;;6306344;22;20230;-69
2023/07/03 19:27:22;;;;;;;;;;;14.10;92.90;;;;;;6307044;22;20223;-68
2023/07/03 19:29:49;;;;;;;;;;;14.10;92.90;;;;;;6306428;22;19910;-68
2023/07/03 19:32:15;;;;;;;;;;;14.10;92.90;;;;;;6306451;22;20397;-68
2023/07/03 19:34:44;;;;;;;;;;;14.10;92.90;;;;;;6306776;22;19903;-68
2023/07/03 19:37:11;;;;;;;;;;;14.10;93.00;;;;;;6307181;22;19911;-68
2023/07/03 19:39:38;;;;;;;;;;;14.10;92.90;;;;;;6306580;22;19907;-68
2023/07/03 19:42:05;;;;;;;;;;;14.10;92.90;;;;;;6307605;22;20294;-68
2023/07/03 21:02:22;;;;;;;;;;;13.60;95.20;;;;;;6300419;22;20386;-66
2023/07/03 21:04:49;;;;;;;;;;;13.60;95.30;;;;;;6306550;22;19911;-66
2023/07/03 21:07:16;;;;;;;;;;;13.60;95.40;;;;;;6305882;22;19948;-66
2023/07/03 21:09:43;;;;;;;;;;;13.60;95.40;;;;;;6305116;22;19903;-67
2023/07/03 21:12:09;;;;;;;;;;;13.50;95.30;;;;;;6306188;22;19911;-67
2023/07/03 21:14:36;;;;;;;;;;;13.60;95.40;;;;;;6306298;22;19907;-68
2023/07/03 21:17:03;;;;;;;;;;;13.60;95.50;;;;;;6305174;22;19903;-67
2023/07/03 21:19:30;;;;;;;;;;;13.50;95.50;;;;;;6305936;22;19910;-67
2023/07/03 21:21:56;;;;;;;;;;;13.60;95.60;;;;;;6305213;22;19903;-67
2023/07/03 21:24:23;;;;;;;;;;;13.60;95.60;;;;;;6305526;22;19903;-67
2023/07/03 21:26:50;;;;;;;;;;;13.60;95.60;;;;;;6306131;22;20506;-67
2023/07/03 21:29:17;;;;;;;;;;;13.60;95.60;;;;;;6305779;22;19903;-67
2023/07/03 21:31:43;;;;;;;;;;;13.60;95.60;;;;;;6305329;22;19940;-67
2023/07/03 21:34:12;;;;;;;;;;;13.60;95.70;;;;;;6306264;22;20339;-67
2023/07/03 21:36:38;;;;;;;;;;;13.60;95.70;;;;;;6306412;22;20024;-67
2023/07/03 21:39:05;;;;;;;;;;;13.60;95.70;;;;;;6305835;22;19907;-67
2023/07/03 21:41:33;;;;;;;;;;;13.60;95.70;;;;;;6304871;22;19957;-67
2023/07/03 21:44:01;;;;;;;;;;;13.60;95.70;;;;;;6280833;22;19927;-66
2023/07/03 21:46:29;;;;;;;;;;;13.60;95.80;;;;;;6308055;22;19906;-66
2023/07/03 21:48:56;;;;;;;;;;;13.60;95.80;;;;;;6280492;22;20322;-67
2023/07/03 21:51:23;;;;;;;;;;;13.50;95.80;;;;;;6308124;22;19907;-67
2023/07/03 21:53:50;;;;;;;;;;;13.60;95.80;;;;;;6307112;22;20322;-67
2023/07/03 21:56:21;;;;;;;;;;;13.50;95.80;;;;;;6307310;22;19910;-67
2023/07/03 21:58:50;;;;;;;;;;;13.60;95.80;;;;;;6308236;22;19972;-66
2023/07/03 22:01:28;;;;;;;;;;;13.60;95.90;;;;;;6308030;22;19938;-67
2023/07/03 22:03:54;;;;;;;;;;;13.60;95.90;;;;;;6307004;22;19960;-68
2023/07/03 22:06:22;;;;;;;;;;;13.60;95.90;;;;;;6279050;22;19910;-66
2023/07/03 22:08:49;;;;;;;;;;;13.60;95.90;;;;;;6307197;22;20238;-66
2023/07/03 22:11:16;;;;;;;;;;;13.60;96.00;;;;;;6306709;22;19949;-66
2023/07/03 22:13:43;;;;;;;;;;;13.70;96.00;;;;;;6306729;22;19934;-66
2023/07/03 22:16:09;;;;;;;;;;;13.60;95.90;;;;;;6307435;22;19930;-66
2023/07/03 22:18:36;;;;;;;;;;;13.70;96.00;;;;;;6306227;22;20337;-66
2023/07/03 22:21:04;;;;;;;;;;;13.60;96.00;;;;;;6306394;22;19909;-66
2023/07/03 22:23:31;;;;;;;;;;;13.70;96.10;;;;;;6306210;22;19965;-66
2023/07/03 22:25:58;;;;;;;;;;;13.70;96.10;;;;;;6306372;22;19907;-65
2023/07/03 22:28:25;;;;;;;;;;;13.70;96.10;;;;;;6306803;22;20380;-65
2023/07/03 22:30:51;;;;;;;;;;;13.70;96.10;;;;;;6307782;22;19910;-65
2023/07/03 22:33:18;;;;;;;;;;;13.70;96.20;;;;;;6306022;22;19926;-65
2023/07/03 22:35:45;;;;;;;;;;;13.70;96.20;;;;;;6306600;22;19907;-65
2023/07/03 22:38:12;;;;;;;;;;;13.70;96.30;;;;;;6280554;22;19981;-65
2023/07/03 22:40:40;;;;;;;;;;;13.80;96.30;;;;;;6306947;22;19930;-66
2023/07/03 22:43:07;;;;;;;;;;;13.80;96.30;;;;;;6280134;22;19907;-66
2023/07/03 22:45:34;;;;;;;;;;;13.70;96.20;;;;;;6280444;22;19931;-65
2023/07/03 22:48:01;;;;;;;;;;;13.80;96.30;;;;;;6308071;22;19911;-66
2023/07/03 22:50:27;;;;;;;;;;;13.80;96.30;;;;;;6306762;22;19910;-66
2023/07/03 22:52:54;;;;;;;;;;;13.80;96.30;;;;;;6307418;22;20230;-65
2023/07/03 22:55:21;;;;;;;;;;;13.80;96.30;;;;;;6307112;22;19903;-66
2023/07/03 22:57:47;;;;;;;;;;;13.80;96.40;;;;;;6308164;22;20326;-67
